sensor_id;sensor_type;location;lat;lon;timestamp;P1;durP1;ratioP1;P2;durP2;ratioP2
60999;SDS011;46879;45.658;11.814;2022-10-30T00:02:32;8.40;;;3.33;;
60999;SDS011;46879;45.658;11.814;2022-10-30T00:07:32;6.38;;;3.40;;
60999;SDS011;46879;45.658;11.814;2022-10-30T00:12:32;5.10;;;3.38;;
60999;SDS011;46879;45.658;11.814;2022-10-30T00:17:33;6.32;;;3.55;;
60999;SDS011;46879;45.658;11.814;2022-10-30T00:22:34;6.32;;;3.58;;
60999;SDS011;46879;45.658;11.814;2022-10-30T00:27:34;7.65;;;3.22;;
60999;SDS011;46879;45.658;11.814;2022-10-30T00:32:34;5.60;;;3.57;;
60999;SDS011;46879;45.658;11.814;2022-10-30T00:37:35;7.03;;;3.97;;
60999;SDS011;46879;45.658;11.814;2022-10-30T00:42:36;5.25;;;3.45;;
60999;SDS011;46879;45.658;11.814;2022-10-30T00:47:37;5.72;;;3.33;;
60999;SDS011;46879;45.658;11.814;2022-10-30T00:52:39;5.40;;;3.72;;
60999;SDS011;46879;45.658;11.814;2022-10-30T00:57:42;5.60;;;3.60;;
60999;SDS011;46879;45.658;11.814;2022-10-30T01:02:42;4.50;;;3.40;;
60999;SDS011;46879;45.658;11.814;2022-10-30T01:07:43;4.13;;;3.30;;
60999;SDS011;46879;45.658;11.814;2022-10-30T01:12:43;4.85;;;3.47;;
60999;SDS011;46879;45.658;11.814;2022-10-30T01:17:50;5.18;;;3.35;;
60999;SDS011;46879;45.658;11.814;2022-10-30T01:33:27;5.53;;;3.58;;
60999;SDS011;46879;45.658;11.814;2022-10-30T01:38:34;4.32;;;3.03;;
60999;SDS011;46879;45.658;11.814;2022-10-30T01:43:35;5.18;;;3.40;;
60999;SDS011;46879;45.658;11.814;2022-10-30T02:04:09;7.15;;;3.30;;
60999;SDS011;46879;45.658;11.814;2022-10-30T02:09:10;4.63;;;3.00;;
60999;SDS011;46879;45.658;11.814;2022-10-30T02:14:10;8.15;;;2.95;;
60999;SDS011;46879;45.658;11.814;2022-10-30T02:19:11;6.15;;;3.35;;
60999;SDS011;46879;45.658;11.814;2022-10-30T02:24:12;6.32;;;3.05;;
60999;SDS011;46879;45.658;11.814;2022-10-30T02:29:12;5.68;;;3.20;;
60999;SDS011;46879;45.658;11.814;2022-10-30T02:34:13;6.28;;;3.38;;
60999;SDS011;46879;45.658;11.814;2022-10-30T02:39:13;7.67;;;3.20;;
60999;SDS011;46879;45.658;11.814;2022-10-30T02:44:13;4.60;;;3.20;;
60999;SDS011;46879;45.658;11.814;2022-10-30T02:49:13;4.82;;;3.40;;
60999;SDS011;46879;45.658;11.814;2022-10-30T02:54:14;4.35;;;3.13;;
60999;SDS011;46879;45.658;11.814;2022-10-30T02:59:14;4.40;;;2.97;;
60999;SDS011;46879;45.658;11.814;2022-10-30T03:04:14;8.30;;;3.40;;
60999;SDS011;46879;45.658;11.814;2022-10-30T03:09:14;3.80;;;3.28;;
60999;SDS011;46879;45.658;11.814;2022-10-30T03:14:15;4.57;;;2.90;;
60999;SDS011;46879;45.658;11.814;2022-10-30T03:19:15;5.77;;;3.60;;
60999;SDS011;46879;45.658;11.814;2022-10-30T03:24:15;4.82;;;3.20;;
60999;SDS011;46879;45.658;11.814;2022-10-30T03:29:16;5.97;;;3.20;;
60999;SDS011;46879;45.658;11.814;2022-10-30T03:34:16;4.70;;;3.05;;
60999;SDS011;46879;45.658;11.814;2022-10-30T03:39:16;5.18;;;3.22;;
60999;SDS011;46879;45.658;11.814;2022-10-30T03:44:16;4.07;;;2.83;;
60999;SDS011;46879;45.658;11.814;2022-10-30T03:49:17;4.97;;;2.75;;
60999;SDS011;46879;45.658;11.814;2022-10-30T03:54:17;4.93;;;3.30;;
60999;SDS011;46879;45.658;11.814;2022-10-30T03:59:17;3.10;;;2.80;;
60999;SDS011;46879;45.658;11.814;2022-10-30T04:04:17;5.93;;;2.80;;
60999;SDS011;46879;45.658;11.814;2022-10-30T04:09:18;4.03;;;3.00;;
60999;SDS011;46879;45.658;11.814;2022-10-30T04:14:18;3.63;;;2.80;;
60999;SDS011;46879;45.658;11.814;2022-10-30T04:19:18;4.38;;;3.10;;
60999;SDS011;46879;45.658;11.814;2022-10-30T04:24:18;3.90;;;2.90;;
60999;SDS011;46879;45.658;11.814;2022-10-30T04:29:19;5.70;;;3.30;;
60999;SDS011;46879;45.658;11.814;2022-10-30T04:34:19;4.00;;;3.22;;
60999;SDS011;46879;45.658;11.814;2022-10-30T04:39:19;5.60;;;3.33;;
60999;SDS011;46879;45.658;11.814;2022-10-30T04:44:20;5.13;;;3.07;;
60999;SDS011;46879;45.658;11.814;2022-10-30T04:49:20;4.07;;;3.28;;
60999;SDS011;46879;45.658;11.814;2022-10-30T04:54:20;4.45;;;3.20;;
60999;SDS011;46879;45.658;11.814;2022-10-30T04:59:21;4.50;;;2.90;;
60999;SDS011;46879;45.658;11.814;2022-10-30T05:04:21;5.35;;;3.20;;
60999;SDS011;46879;45.658;11.814;2022-10-30T05:09:21;5.03;;;3.17;;
60999;SDS011;46879;45.658;11.814;2022-10-30T05:14:22;3.43;;;2.70;;
60999;SDS011;46879;45.658;11.814;2022-10-30T05:19:22;4.75;;;2.83;;
60999;SDS011;46879;45.658;11.814;2022-10-30T05:24:22;5.90;;;3.20;;
60999;SDS011;46879;45.658;11.814;2022-10-30T05:29:22;4.35;;;2.88;;
60999;SDS011;46879;45.658;11.814;2022-10-30T05:34:23;3.17;;;2.88;;
60999;SDS011;46879;45.658;11.814;2022-10-30T05:39:23;4.88;;;2.80;;
60999;SDS011;46879;45.658;11.814;2022-10-30T05:44:25;3.72;;;2.60;;
60999;SDS011;46879;45.658;11.814;2022-10-30T05:49:26;4.32;;;3.28;;
60999;SDS011;46879;45.658;11.814;2022-10-30T05:54:26;3.78;;;2.80;;
60999;SDS011;46879;45.658;11.814;2022-10-30T05:59:26;4.25;;;3.15;;
60999;SDS011;46879;45.658;11.814;2022-10-30T06:04:26;3.30;;;2.77;;
60999;SDS011;46879;45.658;11.814;2022-10-30T06:09:27;3.67;;;2.50;;
60999;SDS011;46879;45.658;11.814;2022-10-30T06:14:27;4.20;;;2.67;;
60999;SDS011;46879;45.658;11.814;2022-10-30T06:19:27;7.82;;;2.70;;
60999;SDS011;46879;45.658;11.814;2022-10-30T06:24:28;3.60;;;2.60;;
60999;SDS011;46879;45.658;11.814;2022-10-30T06:29:28;4.15;;;3.03;;
60999;SDS011;46879;45.658;11.814;2022-10-30T06:34:28;7.30;;;3.15;;
60999;SDS011;46879;45.658;11.814;2022-10-30T06:39:28;5.97;;;3.38;;
60999;SDS011;46879;45.658;11.814;2022-10-30T06:44:29;4.18;;;3.05;;
60999;SDS011;46879;45.658;11.814;2022-10-30T06:49:29;10.13;;;3.13;;
60999;SDS011;46879;45.658;11.814;2022-10-30T06:54:30;2.85;;;2.45;;
60999;SDS011;46879;45.658;11.814;2022-10-30T06:59:30;6.90;;;2.78;;
60999;SDS011;46879;45.658;11.814;2022-10-30T07:04:30;3.75;;;3.05;;
60999;SDS011;46879;45.658;11.814;2022-10-30T07:09:30;3.67;;;2.88;;
60999;SDS011;46879;45.658;11.814;2022-10-30T07:14:31;4.77;;;3.30;;
60999;SDS011;46879;45.658;11.814;2022-10-30T07:19:31;6.97;;;3.25;;
60999;SDS011;46879;45.658;11.814;2022-10-30T07:24:31;6.70;;;3.15;;
60999;SDS011;46879;45.658;11.814;2022-10-30T07:29:32;6.57;;;3.53;;
60999;SDS011;46879;45.658;11.814;2022-10-30T07:34:32;4.90;;;3.00;;
60999;SDS011;46879;45.658;11.814;2022-10-30T07:39:33;6.90;;;3.67;;
60999;SDS011;46879;45.658;11.814;2022-10-30T07:44:33;16.75;;;3.75;;
60999;SDS011;46879;45.658;11.814;2022-10-30T07:49:33;11.45;;;3.38;;
60999;SDS011;46879;45.658;11.814;2022-10-30T07:54:34;13.70;;;4.00;;
60999;SDS011;46879;45.658;11.814;2022-10-30T07:59:34;7.72;;;3.42;;
60999;SDS011;46879;45.658;11.814;2022-10-30T08:04:34;5.10;;;3.53;;
60999;SDS011;46879;45.658;11.814;2022-10-30T08:09:34;7.70;;;3.25;;
60999;SDS011;46879;45.658;11.814;2022-10-30T08:14:35;7.50;;;4.07;;
60999;SDS011;46879;45.658;11.814;2022-10-30T08:19:35;7.33;;;3.50;;
60999;SDS011;46879;45.658;11.814;2022-10-30T08:24:35;10.52;;;3.85;;
60999;SDS011;46879;45.658;11.814;2022-10-30T08:29:35;5.72;;;3.13;;
60999;SDS011;46879;45.658;11.814;2022-10-30T08:34:36;8.95;;;3.80;;
60999;SDS011;46879;45.658;11.814;2022-10-30T08:39:36;9.77;;;3.30;;
60999;SDS011;46879;45.658;11.814;2022-10-30T08:44:36;5.87;;;3.37;;
60999;SDS011;46879;45.658;11.814;2022-10-30T08:49:37;11.35;;;3.70;;
60999;SDS011;46879;45.658;11.814;2022-10-30T08:54:37;4.97;;;3.08;;
60999;SDS011;46879;45.658;11.814;2022-10-30T08:59:37;6.38;;;3.17;;
60999;SDS011;46879;45.658;11.814;2022-10-30T09:04:37;7.72;;;3.10;;
60999;SDS011;46879;45.658;11.814;2022-10-30T09:09:38;5.60;;;3.33;;
60999;SDS011;46879;45.658;11.814;2022-10-30T09:14:38;8.45;;;3.63;;
60999;SDS011;46879;45.658;11.814;2022-10-30T09:19:38;7.05;;;3.55;;
60999;SDS011;46879;45.658;11.814;2022-10-30T09:24:38;3.90;;;2.83;;
60999;SDS011;46879;45.658;11.814;2022-10-30T09:29:39;5.13;;;3.50;;
60999;SDS011;46879;45.658;11.814;2022-10-30T09:34:39;5.35;;;2.85;;
60999;SDS011;46879;45.658;11.814;2022-10-30T09:39:40;5.00;;;2.85;;
60999;SDS011;46879;45.658;11.814;2022-10-30T10:00:09;7.10;;;2.97;;
60999;SDS011;46879;45.658;11.814;2022-10-30T10:05:14;6.45;;;2.92;;
60999;SDS011;46879;45.658;11.814;2022-10-30T10:10:18;5.18;;;3.42;;
60999;SDS011;46879;45.658;11.814;2022-10-30T10:16:02;5.85;;;2.72;;
60999;SDS011;46879;45.658;11.814;2022-10-30T10:20:44;7.38;;;3.45;;
60999;SDS011;46879;45.658;11.814;2022-10-30T10:25:49;5.15;;;2.90;;
60999;SDS011;46879;45.658;11.814;2022-10-30T10:30:56;4.60;;;2.90;;
60999;SDS011;46879;45.658;11.814;2022-10-30T10:51:58;3.70;;;2.80;;
60999;SDS011;46879;45.658;11.814;2022-10-30T10:57:02;6.63;;;2.75;;
60999;SDS011;46879;45.658;11.814;2022-10-30T11:02:23;3.97;;;2.55;;
60999;SDS011;46879;45.658;11.814;2022-10-30T11:07:30;3.78;;;2.58;;
60999;SDS011;46879;45.658;11.814;2022-10-30T11:12:33;3.47;;;2.50;;
60999;SDS011;46879;45.658;11.814;2022-10-30T11:17:37;5.90;;;2.92;;
60999;SDS011;46879;45.658;11.814;2022-10-30T11:22:41;3.80;;;2.92;;
60999;SDS011;46879;45.658;11.814;2022-10-30T11:27:44;9.00;;;2.70;;
60999;SDS011;46879;45.658;11.814;2022-10-30T11:32:45;3.33;;;2.80;;
60999;SDS011;46879;45.658;11.814;2022-10-30T11:38:10;4.10;;;2.60;;
60999;SDS011;46879;45.658;11.814;2022-10-30T11:43:12;4.28;;;2.72;;
60999;SDS011;46879;45.658;11.814;2022-10-30T11:48:18;3.10;;;2.60;;
60999;SDS011;46879;45.658;11.814;2022-10-30T11:53:22;2.60;;;2.40;;
60999;SDS011;46879;45.658;11.814;2022-10-30T12:03:28;6.25;;;2.72;;
60999;SDS011;46879;45.658;11.814;2022-10-30T12:08:28;4.07;;;2.83;;
60999;SDS011;46879;45.658;11.814;2022-10-30T12:13:36;3.95;;;2.65;;
60999;SDS011;46879;45.658;11.814;2022-10-30T12:18:37;3.75;;;2.80;;
60999;SDS011;46879;45.658;11.814;2022-10-30T12:23:38;4.22;;;2.75;;
60999;SDS011;46879;45.658;11.814;2022-10-30T12:28:51;3.72;;;2.70;;
60999;SDS011;46879;45.658;11.814;2022-10-30T12:34:04;5.13;;;2.35;;
60999;SDS011;46879;45.658;11.814;2022-10-30T12:39:10;3.65;;;2.40;;
60999;SDS011;46879;45.658;11.814;2022-10-30T12:44:15;3.60;;;2.40;;
60999;SDS011;46879;45.658;11.814;2022-10-30T12:49:23;5.50;;;2.70;;
60999;SDS011;46879;45.658;11.814;2022-10-30T13:04:51;3.58;;;2.47;;
60999;SDS011;46879;45.658;11.814;2022-10-30T13:20:19;2.53;;;2.30;;
60999;SDS011;46879;45.658;11.814;2022-10-30T13:30:39;3.97;;;2.30;;
60999;SDS011;46879;45.658;11.814;2022-10-30T13:35:48;4.00;;;2.53;;
60999;SDS011;46879;45.658;11.814;2022-10-30T13:40:59;7.25;;;2.45;;
60999;SDS011;46879;45.658;11.814;2022-10-30T13:56:24;3.33;;;2.17;;
60999;SDS011;46879;45.658;11.814;2022-10-30T14:11:54;4.82;;;2.72;;
60999;SDS011;46879;45.658;11.814;2022-10-30T14:17:08;3.07;;;2.40;;
60999;SDS011;46879;45.658;11.814;2022-10-30T14:22:18;2.58;;;2.15;;
60999;SDS011;46879;45.658;11.814;2022-10-30T14:27:30;6.80;;;2.83;;
60999;SDS011;46879;45.658;11.814;2022-10-30T14:32:33;3.22;;;2.30;;
60999;SDS011;46879;45.658;11.814;2022-10-30T14:42:46;6.40;;;2.28;;
60999;SDS011;46879;45.658;11.814;2022-10-30T14:57:53;3.90;;;2.30;;
60999;SDS011;46879;45.658;11.814;2022-10-30T15:13:36;4.43;;;2.40;;
60999;SDS011;46879;45.658;11.814;2022-10-30T15:18:37;3.38;;;2.30;;
60999;SDS011;46879;45.658;11.814;2022-10-30T15:23:38;3.92;;;2.55;;
60999;SDS011;46879;45.658;11.814;2022-10-30T15:28:40;3.42;;;2.40;;
60999;SDS011;46879;45.658;11.814;2022-10-30T15:33:40;3.30;;;2.47;;
60999;SDS011;46879;45.658;11.814;2022-10-30T15:38:40;3.75;;;2.20;;
60999;SDS011;46879;45.658;11.814;2022-10-30T15:43:41;3.83;;;2.20;;
60999;SDS011;46879;45.658;11.814;2022-10-30T15:48:43;3.38;;;2.30;;
60999;SDS011;46879;45.658;11.814;2022-10-30T15:58:51;3.83;;;2.35;;
60999;SDS011;46879;45.658;11.814;2022-10-30T16:03:53;4.68;;;2.42;;
60999;SDS011;46879;45.658;11.814;2022-10-30T16:08:53;1.98;;;1.73;;
60999;SDS011;46879;45.658;11.814;2022-10-30T16:13:53;3.00;;;2.03;;
60999;SDS011;46879;45.658;11.814;2022-10-30T16:18:56;2.17;;;1.92;;
60999;SDS011;46879;45.658;11.814;2022-10-30T16:23:58;3.53;;;2.20;;
60999;SDS011;46879;45.658;11.814;2022-10-30T16:29:08;2.63;;;2.15;;
60999;SDS011;46879;45.658;11.814;2022-10-30T16:34:25;4.50;;;2.20;;
60999;SDS011;46879;45.658;11.814;2022-10-30T16:39:30;4.60;;;2.40;;
60999;SDS011;46879;45.658;11.814;2022-10-30T16:44:32;3.03;;;2.10;;
60999;SDS011;46879;45.658;11.814;2022-10-30T16:49:32;2.30;;;2.00;;
60999;SDS011;46879;45.658;11.814;2022-10-30T16:54:37;2.58;;;2.20;;
60999;SDS011;46879;45.658;11.814;2022-10-30T16:59:43;3.83;;;2.00;;
60999;SDS011;46879;45.658;11.814;2022-10-30T17:04:44;2.67;;;2.10;;
60999;SDS011;46879;45.658;11.814;2022-10-30T17:09:46;3.03;;;2.10;;
60999;SDS011;46879;45.658;11.814;2022-10-30T17:19:52;2.67;;;2.40;;
60999;SDS011;46879;45.658;11.814;2022-10-30T17:24:53;3.20;;;2.10;;
60999;SDS011;46879;45.658;11.814;2022-10-30T17:29:54;2.93;;;2.00;;
60999;SDS011;46879;45.658;11.814;2022-10-30T17:34:58;2.63;;;2.00;;
60999;SDS011;46879;45.658;11.814;2022-10-30T17:40:00;3.05;;;2.03;;
60999;SDS011;46879;45.658;11.814;2022-10-30T17:45:00;2.38;;;2.00;;
60999;SDS011;46879;45.658;11.814;2022-10-30T17:50:00;3.37;;;2.07;;
60999;SDS011;46879;45.658;11.814;2022-10-30T17:55:03;4.65;;;2.28;;
60999;SDS011;46879;45.658;11.814;2022-10-30T18:00:07;2.28;;;1.90;;
60999;SDS011;46879;45.658;11.814;2022-10-30T18:05:17;3.15;;;2.00;;
60999;SDS011;46879;45.658;11.814;2022-10-30T18:10:18;4.63;;;1.70;;
60999;SDS011;46879;45.658;11.814;2022-10-30T18:15:32;2.97;;;2.28;;
60999;SDS011;46879;45.658;11.814;2022-10-30T18:20:33;2.35;;;1.90;;
60999;SDS011;46879;45.658;11.814;2022-10-30T18:25:34;1.98;;;1.80;;
60999;SDS011;46879;45.658;11.814;2022-10-30T18:30:35;3.30;;;2.15;;
60999;SDS011;46879;45.658;11.814;2022-10-30T18:35:36;4.10;;;2.00;;
60999;SDS011;46879;45.658;11.814;2022-10-30T18:40:36;3.53;;;2.28;;
60999;SDS011;46879;45.658;11.814;2022-10-30T18:45:37;2.15;;;1.95;;
60999;SDS011;46879;45.658;11.814;2022-10-30T18:50:39;3.03;;;2.17;;
60999;SDS011;46879;45.658;11.814;2022-10-30T18:55:40;2.75;;;1.98;;
60999;SDS011;46879;45.658;11.814;2022-10-30T19:00:40;2.30;;;2.10;;
60999;SDS011;46879;45.658;11.814;2022-10-30T19:10:45;2.53;;;1.80;;
60999;SDS011;46879;45.658;11.814;2022-10-30T19:15:46;3.88;;;2.00;;
60999;SDS011;46879;45.658;11.814;2022-10-30T19:20:46;2.25;;;1.98;;
60999;SDS011;46879;45.658;11.814;2022-10-30T19:25:47;3.90;;;2.15;;
60999;SDS011;46879;45.658;11.814;2022-10-30T19:30:48;3.92;;;2.30;;
60999;SDS011;46879;45.658;11.814;2022-10-30T19:35:57;2.60;;;2.13;;
60999;SDS011;46879;45.658;11.814;2022-10-30T19:40:58;3.78;;;2.40;;
60999;SDS011;46879;45.658;11.814;2022-10-30T19:45:58;3.83;;;2.00;;
60999;SDS011;46879;45.658;11.814;2022-10-30T19:50:59;2.88;;;1.95;;
60999;SDS011;46879;45.658;11.814;2022-10-30T19:55:59;1.85;;;1.73;;
60999;SDS011;46879;45.658;11.814;2022-10-30T20:00:59;1.90;;;1.67;;
60999;SDS011;46879;45.658;11.814;2022-10-30T20:05:59;2.55;;;2.15;;
60999;SDS011;46879;45.658;11.814;2022-10-30T20:11:00;2.85;;;2.28;;
60999;SDS011;46879;45.658;11.814;2022-10-30T20:16:00;2.40;;;2.20;;
60999;SDS011;46879;45.658;11.814;2022-10-30T20:21:04;3.65;;;2.17;;
60999;SDS011;46879;45.658;11.814;2022-10-30T20:26:17;3.28;;;2.30;;
60999;SDS011;46879;45.658;11.814;2022-10-30T20:31:20;2.78;;;2.10;;
60999;SDS011;46879;45.658;11.814;2022-10-30T20:36:21;3.15;;;2.40;;
60999;SDS011;46879;45.658;11.814;2022-10-30T20:41:24;2.30;;;2.03;;
60999;SDS011;46879;45.658;11.814;2022-10-30T20:46:25;3.67;;;3.00;;
60999;SDS011;46879;45.658;11.814;2022-10-30T20:51:25;4.05;;;2.50;;
60999;SDS011;46879;45.658;11.814;2022-10-30T20:56:25;2.88;;;2.30;;
60999;SDS011;46879;45.658;11.814;2022-10-30T21:01:26;4.50;;;2.53;;
60999;SDS011;46879;45.658;11.814;2022-10-30T21:06:26;2.78;;;2.35;;
60999;SDS011;46879;45.658;11.814;2022-10-30T21:11:26;2.50;;;2.30;;
60999;SDS011;46879;45.658;11.814;2022-10-30T21:16:26;4.40;;;2.55;;
60999;SDS011;46879;45.658;11.814;2022-10-30T21:21:27;2.97;;;2.25;;
60999;SDS011;46879;45.658;11.814;2022-10-30T21:26:27;3.30;;;2.60;;
60999;SDS011;46879;45.658;11.814;2022-10-30T21:31:27;2.67;;;2.30;;
60999;SDS011;46879;45.658;11.814;2022-10-30T21:36:28;2.77;;;2.07;;
60999;SDS011;46879;45.658;11.814;2022-10-30T21:41:28;2.33;;;2.00;;
60999;SDS011;46879;45.658;11.814;2022-10-30T21:46:29;3.87;;;2.37;;
60999;SDS011;46879;45.658;11.814;2022-10-30T21:51:29;2.53;;;2.28;;
60999;SDS011;46879;45.658;11.814;2022-10-30T21:56:30;2.80;;;2.50;;
60999;SDS011;46879;45.658;11.814;2022-10-30T22:01:31;2.80;;;2.38;;
60999;SDS011;46879;45.658;11.814;2022-10-30T22:06:32;3.03;;;2.60;;
60999;SDS011;46879;45.658;11.814;2022-10-30T22:11:33;2.90;;;2.30;;
60999;SDS011;46879;45.658;11.814;2022-10-30T22:16:34;2.75;;;2.38;;
60999;SDS011;46879;45.658;11.814;2022-10-30T22:21:34;4.65;;;2.50;;
60999;SDS011;46879;45.658;11.814;2022-10-30T22:26:35;2.80;;;2.22;;
60999;SDS011;46879;45.658;11.814;2022-10-30T22:31:35;2.95;;;2.65;;
60999;SDS011;46879;45.658;11.814;2022-10-30T22:36:35;4.03;;;2.58;;
60999;SDS011;46879;45.658;11.814;2022-10-30T22:41:35;5.10;;;2.67;;
60999;SDS011;46879;45.658;11.814;2022-10-30T22:46:36;5.45;;;2.45;;
60999;SDS011;46879;45.658;11.814;2022-10-30T22:51:37;3.92;;;2.50;;
60999;SDS011;46879;45.658;11.814;2022-10-30T22:56:38;4.50;;;2.83;;
60999;SDS011;46879;45.658;11.814;2022-10-30T23:01:38;2.80;;;2.60;;
60999;SDS011;46879;45.658;11.814;2022-10-30T23:06:39;2.78;;;2.10;;
60999;SDS011;46879;45.658;11.814;2022-10-30T23:11:40;3.80;;;2.80;;
60999;SDS011;46879;45.658;11.814;2022-10-30T23:16:40;3.92;;;2.67;;
60999;SDS011;46879;45.658;11.814;2022-10-30T23:21:41;2.92;;;2.58;;
60999;SDS011;46879;45.658;11.814;2022-10-30T23:26:41;3.70;;;2.60;;
60999;SDS011;46879;45.658;11.814;2022-10-30T23:31:41;3.35;;;2.60;;
60999;SDS011;46879;45.658;11.814;2022-10-30T23:36:42;4.63;;;2.85;;
60999;SDS011;46879;45.658;11.814;2022-10-30T23:41:43;3.97;;;3.10;;
60999;SDS011;46879;45.658;11.814;2022-10-30T23:46:43;3.05;;;2.53;;
60999;SDS011;46879;45.658;11.814;2022-10-30T23:51:43;4.77;;;2.50;;
60999;SDS011;46879;45.658;11.814;2022-10-30T23:56:44;2.88;;;2.50;;
